Time;durP1;ratioP1;P1;durP2;ratioP2;P2;SDS_P1;SDS_P2;PMS_P1;PMS_P2;Temp;Humidity;BMP_temperature;BMP_pressure;BME280_temperature;BME280_humidity;BME280_pressure;Samples;Min_cycle;Max_cycle;Signal;HPM_P1;HPM_P2
2021/05/28 00:00:28;;;;;;;94.47;29.53;;;;;;;7.88;100.00;101047.84;5013950;28;20189;-66
2021/05/28 00:02:53;;;;;;;40.80;22.00;;;;;;;7.96;100.00;101063.50;4996043;28;20518;-68
2021/05/28 00:05:19;;;;;;;41.73;22.47;;;;;;;8.00;100.00;101055.34;5013754;28;20183;-68
2021/05/28 00:07:44;;;;;;;35.20;20.20;;;;;;;7.94;100.00;101052.06;5014064;28;20176;-68
2021/05/28 00:10:10;;;;;;;38.93;21.87;;;;;;;7.91;100.00;101060.16;4996443;28;20533;-68
2021/05/28 00:12:35;;;;;;;46.77;21.57;;;;;;;7.88;100.00;101060.28;5013951;28;20195;-68
2021/05/28 00:15:01;;;;;;;38.00;20.97;;;;;;;7.85;100.00;101055.94;4996418;28;20196;-68
2021/05/28 00:17:26;;;;;;;38.53;19.83;;;;;;;7.89;100.00;101069.97;5013453;28;20249;-68
2021/05/28 00:19:51;;;;;;;26.13;18.43;;;;;;;7.93;100.00;101060.97;5013452;28;20180;-68
2021/05/28 00:22:17;;;;;;;31.70;20.67;;;;;;;7.98;100.00;101069.63;5013624;28;20192;-68
2021/05/28 00:24:42;;;;;;;32.10;20.10;;;;;;;8.05;100.00;101057.81;5013417;28;20176;-68
2021/05/28 00:27:07;;;;;;;27.47;18.77;;;;;;;8.10;100.00;101059.38;5013797;28;20581;-68
2021/05/28 00:29:33;;;;;;;32.33;19.10;;;;;;;8.07;100.00;101062.16;4996256;28;20298;-68
2021/05/28 00:31:58;;;;;;;25.07;18.17;;;;;;;8.10;100.00;101063.81;5016984;28;20204;-67
2021/05/28 00:34:24;;;;;;;31.83;19.80;;;;;;;8.02;100.00;101064.13;5017746;28;20553;-67
2021/05/28 00:36:49;;;;;;;30.23;19.17;;;;;;;8.01;100.00;101074.81;5017573;28;20176;-67
2021/05/28 00:39:15;;;;;;;39.23;21.00;;;;;;;8.02;100.00;101084.53;5017182;28;20181;-68
2021/05/28 00:41:40;;;;;;;38.30;20.63;;;;;;;8.02;100.00;101079.22;5017470;28;20233;-68
2021/05/28 00:44:06;;;;;;;43.70;22.90;;;;;;;8.03;100.00;101083.59;4999301;28;20545;-68
2021/05/28 00:46:31;;;;;;;53.40;23.47;;;;;;;8.04;100.00;101075.56;5016721;28;20266;-68
2021/05/28 00:48:57;;;;;;;77.03;26.43;;;;;;;8.05;100.00;101076.44;5017404;28;20203;-68
2021/05/28 00:51:23;;;;;;;50.50;23.60;;;;;;;8.07;100.00;101077.22;4999626;28;20776;-68
2021/05/28 00:53:48;;;;;;;41.93;20.93;;;;;;;8.08;100.00;101081.63;5017007;28;20722;-69
2021/05/28 00:56:14;;;;;;;60.93;23.40;;;;;;;8.10;100.00;101085.94;4999536;28;20204;-69
2021/05/28 00:58:40;;;;;;;42.30;21.53;;;;;;;8.11;100.00;101086.81;4999134;28;20169;-68
2021/05/28 01:01:05;;;;;;;37.60;21.17;;;;;;;8.13;100.00;101093.81;4999395;28;20201;-68
2021/05/28 01:03:30;;;;;;;36.77;21.77;;;;;;;8.14;100.00;101102.66;4999871;28;20183;-68
2021/05/28 01:05:56;;;;;;;39.23;20.37;;;;;;;8.14;100.00;101105.31;5017154;28;20176;-68
2021/05/28 01:08:21;;;;;;;28.50;17.83;;;;;;;8.14;100.00;101105.31;5017299;28;20564;-69
2021/05/28 01:10:46;;;;;;;41.27;19.60;;;;;;;8.15;100.00;101107.91;4999156;28;20675;-68
2021/05/28 01:13:12;;;;;;;28.63;18.07;;;;;;;8.19;100.00;101110.47;5016955;28;20172;-68
2021/05/28 01:15:38;;;;;;;32.57;19.33;;;;;;;8.26;100.00;101114.63;5016633;28;20200;-68
2021/05/28 01:18:03;;;;;;;35.17;18.53;;;;;;;8.23;100.00;101118.28;4999782;28;20260;-68
2021/05/28 01:20:29;;;;;;;29.90;17.80;;;;;;;8.23;100.00;101115.63;4999289;28;20228;-68
2021/05/28 01:22:56;;;;;;;33.23;19.57;;;;;;;8.22;100.00;101113.88;4999341;28;20560;-67
2021/05/28 01:25:22;;;;;;;29.87;18.77;;;;;;;8.25;100.00;101121.75;5016964;28;20176;-67
2021/05/28 01:27:47;;;;;;;34.17;18.70;;;;;;;8.26;100.00;101117.28;4999162;28;20166;-68
2021/05/28 01:30:14;;;;;;;34.20;19.73;;;;;;;8.26;100.00;101123.47;5016808;28;20545;-68
2021/05/28 01:32:41;;;;;;;31.37;18.10;;;;;;;8.32;100.00;101125.88;5030335;22;20353;-71
2021/05/28 01:35:08;;;;;;;26.63;18.10;;;;;;;8.35;100.00;101125.78;4999013;28;20673;-72
2021/05/28 01:37:33;;;;;;;26.00;16.27;;;;;;;8.43;100.00;101121.03;4999101;28;20181;-72
2021/05/28 01:39:59;;;;;;;26.13;17.07;;;;;;;8.43;100.00;101129.03;4998695;28;20239;-71
2021/05/28 01:42:24;;;;;;;27.07;17.87;;;;;;;8.51;100.00;101127.84;4998430;28;20189;-72
2021/05/28 01:44:49;;;;;;;28.03;17.67;;;;;;;8.52;100.00;101124.25;4998422;28;20235;-72
2021/05/28 01:47:15;;;;;;;23.80;16.67;;;;;;;8.57;100.00;101131.16;4998652;28;20205;-73
2021/05/28 01:49:41;;;;;;;21.70;16.37;;;;;;;8.63;100.00;101133.56;4982269;28;20324;-72
2021/05/28 01:52:07;;;;;;;19.80;15.70;;;;;;;8.63;100.00;101130.03;4999234;28;20511;-72
2021/05/28 01:54:34;;;;;;;25.53;16.50;;;;;;;8.59;100.00;101129.28;4998175;28;20193;-72
2021/05/28 01:57:01;;;;;;;29.03;18.33;;;;;;;8.60;100.00;101124.84;4998236;28;20173;-72
2021/05/28 01:59:27;;;;;;;26.77;18.43;;;;;;;8.71;100.00;101131.44;4998087;28;20236;-72
2021/05/28 02:01:52;;;;;;;24.93;18.57;;;;;;;8.75;100.00;101135.72;4981653;28;20204;-72
2021/05/28 02:04:18;;;;;;;23.03;16.37;;;;;;;8.83;100.00;101138.06;4998259;28;20231;-72
2021/05/28 02:06:44;;;;;;;21.13;16.13;;;;;;;8.84;100.00;101133.59;4998519;28;20272;-72
2021/05/28 02:09:09;;;;;;;23.37;17.73;;;;;;;8.84;100.00;101131.81;5017994;28;20187;-72
2021/05/28 02:11:34;;;;;;;21.10;16.40;;;;;;;8.86;100.00;101129.94;4999337;28;20692;-72
2021/05/28 02:14:00;;;;;;;29.07;17.67;;;;;;;8.90;100.00;101138.69;5015368;28;20185;-72
2021/05/28 02:16:25;;;;;;;27.37;17.07;;;;;;;8.84;100.00;101134.47;5015733;28;20215;-72
2021/05/28 02:18:50;;;;;;;22.07;16.50;;;;;;;8.87;100.00;101138.81;5015406;28;20181;-72
2021/05/28 02:21:16;;;;;;;25.53;16.93;;;;;;;8.73;100.00;101134.06;4997856;28;20209;-72
2021/05/28 02:23:41;;;;;;;27.53;16.43;;;;;;;8.72;100.00;101140.31;4997809;28;20711;-73
2021/05/28 02:26:07;;;;;;;24.50;16.67;;;;;;;8.76;100.00;101147.22;4997844;28;20244;-72
2021/05/28 02:28:32;;;;;;;23.13;15.07;;;;;;;8.75;100.00;101141.03;5015081;28;20181;-72
2021/05/28 02:30:57;;;;;;;23.60;15.27;;;;;;;8.71;100.00;101147.41;5014995;28;20189;-72
2021/05/28 02:33:22;;;;;;;40.63;17.60;;;;;;;8.70;100.00;101148.34;4998183;28;20175;-72
2021/05/28 02:35:48;;;;;;;23.80;14.50;;;;;;;8.82;100.00;101151.44;4997914;28;20231;-72
2021/05/28 02:38:13;;;;;;;28.53;13.83;;;;;;;8.86;100.00;101153.03;5015173;28;20174;-72
2021/05/28 02:40:38;;;;;;;17.63;12.77;;;;;;;8.87;100.00;101158.31;5015492;28;20180;-73
2021/05/28 02:43:04;;;;;;;17.00;11.90;;;;;;;8.94;100.00;101156.28;4997361;28;20184;-72
2021/05/28 02:45:29;;;;;;;16.97;10.93;;;;;;;8.92;100.00;101155.44;5014877;28;20561;-72
2021/05/28 02:47:57;;;;;;;11.93;10.00;;;;;;;8.98;100.00;101163.22;4997221;28;20209;-72
2021/05/28 02:50:22;;;;;;;15.37;10.27;;;;;;;8.98;100.00;101160.56;4997690;28;20230;-73
2021/05/28 02:52:47;;;;;;;14.80;10.60;;;;;;;8.96;100.00;101165.94;5013974;28;20208;-73
2021/05/28 02:55:13;;;;;;;13.07;9.33;;;;;;;9.02;100.00;101160.34;5015493;28;20275;-73
2021/05/28 02:57:38;;;;;;;19.47;10.43;;;;;;;8.98;100.00;101163.22;5014701;28;20181;-72
2021/05/28 03:00:05;;;;;;;15.57;10.50;;;;;;;9.01;100.00;101163.94;4980705;28;20636;-70
2021/05/28 03:02:30;;;;;;;13.20;9.27;;;;;;;9.01;100.00;101171.06;4997297;28;20235;-72
2021/05/28 03:04:56;;;;;;;15.03;9.53;;;;;;;9.00;100.00;101172.88;5014319;28;20201;-71
2021/05/28 03:07:21;;;;;;;13.30;9.40;;;;;;;9.13;100.00;101172.34;4997150;28;20637;-71
2021/05/28 03:09:46;;;;;;;15.27;9.33;;;;;;;8.98;100.00;101172.06;5014404;28;20231;-72
2021/05/28 03:12:12;;;;;;;14.70;9.30;;;;;;;9.00;100.00;101177.31;5014421;28;20241;-72
2021/05/28 03:14:37;;;;;;;10.57;8.50;;;;;;;8.98;100.00;101180.06;4980560;28;20293;-72
2021/05/28 03:17:02;;;;;;;11.13;8.77;;;;;;;9.05;100.00;101186.84;4996871;28;20222;-72
2021/05/28 03:19:33;;;;;;;12.37;8.20;;;;;;;9.06;100.00;101187.72;5014367;28;20173;-72
2021/05/28 03:24:43;;;;;;;14.23;8.67;;;;;;;8.94;100.00;101185.56;4999719;28;20248;-72
2021/05/28 03:27:08;;;;;;;16.33;9.07;;;;;;;8.94;100.00;101183.78;4996616;28;20215;-73
2021/05/28 03:29:33;;;;;;;17.83;10.30;;;;;;;9.01;100.00;101190.56;4996536;28;20263;-72
2021/05/28 03:31:59;;;;;;;14.77;8.57;;;;;;;9.14;100.00;101200.72;4996341;28;20216;-73
2021/05/28 03:34:25;;;;;;;13.03;8.67;;;;;;;9.07;100.00;101200.97;4980012;28;20235;-71
2021/05/28 03:36:50;;;;;;;9.67;7.83;;;;;;;9.11;100.00;101212.34;4996533;28;20657;-72
2021/05/28 03:39:16;;;;;;;12.23;8.07;;;;;;;9.13;100.00;101209.63;5014010;28;20183;-72
2021/05/28 03:41:41;;;;;;;11.53;8.30;;;;;;;9.05;100.00;101213.47;5013715;28;20197;-72
2021/05/28 03:44:06;;;;;;;13.40;8.33;;;;;;;9.06;100.00;101215.22;4997224;28;20184;-71
2021/05/28 03:46:32;;;;;;;12.27;8.27;;;;;;;9.17;100.00;101216.56;5014432;28;20176;-72
2021/05/28 03:48:57;;;;;;;13.67;8.20;;;;;;;9.19;100.00;101222.69;5013756;28;20203;-72
2021/05/28 03:51:22;;;;;;;12.10;8.63;;;;;;;9.07;100.00;101218.75;5014027;28;20553;-72
2021/05/28 03:53:49;;;;;;;16.77;8.87;;;;;;;9.04;100.00;101219.72;5013653;28;20185;-72
2021/05/28 03:56:14;;;;;;;14.73;8.23;;;;;;;9.13;100.00;101225.59;4996375;28;20200;-71
2021/05/28 03:58:39;;;;;;;12.87;7.63;;;;;;;9.15;100.00;101218.41;5014288;28;20227;-72
2021/05/28 04:01:04;;;;;;;11.23;8.33;;;;;;;9.14;100.00;101219.34;4996619;28;20561;-73
2021/05/28 04:03:30;;;;;;;14.73;9.20;;;;;;;9.20;100.00;101221.75;5013784;28;20205;-71
2021/05/28 04:05:55;;;;;;;14.67;8.27;;;;;;;9.26;100.00;101221.50;5012877;28;20172;-71
2021/05/28 04:08:21;;;;;;;14.33;8.77;;;;;;;9.23;100.00;101226.97;4996420;28;20184;-71
2021/05/28 04:10:47;;;;;;;10.63;8.40;;;;;;;9.28;100.00;101230.28;4996276;28;20196;-71
2021/05/28 04:13:13;;;;;;;13.57;8.47;;;;;;;9.21;100.00;101231.47;5013569;28;20176;-71
2021/05/28 04:15:38;;;;;;;10.27;6.63;;;;;;;9.27;100.00;101233.88;4996067;28;20193;-72
2021/05/28 04:18:04;;;;;;;9.80;7.20;;;;;;;9.20;100.00;101238.59;4996478;28;20181;-71
2021/05/28 04:20:29;;;;;;;12.00;7.20;;;;;;;9.29;100.00;101237.34;5013867;28;20226;-72
2021/05/28 04:22:54;;;;;;;8.93;6.67;;;;;;;9.34;100.00;101248.72;5013779;28;20211;-71
2021/05/28 04:25:19;;;;;;;11.27;7.20;;;;;;;9.27;100.00;101234.75;5013506;28;20165;-71
2021/05/28 04:27:45;;;;;;;11.67;7.27;;;;;;;9.24;100.00;101240.22;4996598;28;20333;-72
2021/05/28 04:30:11;;;;;;;12.87;7.47;;;;;;;9.19;100.00;101242.19;5013934;28;20545;-71
2021/05/28 04:32:36;;;;;;;19.10;8.40;;;;;;;9.20;100.00;101249.25;5013719;28;20224;-72
2021/05/28 04:35:02;;;;;;;14.60;8.80;;;;;;;9.28;100.00;101251.59;5022563;28;20205;-71
2021/05/28 04:37:27;;;;;;;16.63;8.57;;;;;;;9.41;100.00;101250.19;5023686;28;20175;-73
2021/05/28 04:39:52;;;;;;;15.70;8.67;;;;;;;9.34;100.00;101243.38;5002181;28;20258;-72
2021/05/28 04:42:17;;;;;;;15.00;8.03;;;;;;;9.35;100.00;101248.66;5013364;28;20239;-72
2021/05/28 04:44:43;;;;;;;11.80;8.07;;;;;;;9.40;100.00;101256.44;5013525;28;20281;-73
2021/05/28 04:47:08;;;;;;;15.87;8.30;;;;;;;9.34;100.00;101254.03;5013979;28;20176;-71
2021/05/28 04:49:33;;;;;;;14.17;8.70;;;;;;;9.45;100.00;101267.78;4996524;28;20183;-71
2021/05/28 04:51:59;;;;;;;10.67;7.63;;;;;;;9.53;100.00;101268.31;4995748;28;20568;-72
2021/05/28 04:54:25;;;;;;;12.00;8.50;;;;;;;9.38;100.00;101268.97;4995684;28;20184;-73
2021/05/28 04:56:50;;;;;;;14.53;7.87;;;;;;;9.36;100.00;101276.16;4979556;28;20251;-71
2021/05/28 04:59:15;;;;;;;14.43;7.90;;;;;;;9.31;100.00;101271.03;5013181;28;20169;-76
2021/05/28 05:01:41;;;;;;;14.57;7.77;;;;;;;9.37;100.00;101275.22;4979241;28;20197;-68
2021/05/28 05:04:06;;;;;;;14.83;7.10;;;;;;;9.30;100.00;101273.75;5013653;28;20184;-69
2021/05/28 05:06:31;;;;;;;12.57;7.43;;;;;;;9.27;100.00;101288.03;5013325;28;20631;-70
2021/05/28 05:08:57;;;;;;;12.93;7.80;;;;;;;9.38;100.00;101288.47;5013256;28;20177;-70
2021/05/28 05:11:22;;;;;;;16.17;8.40;;;;;;;9.32;100.00;101290.53;5012820;28;20196;-71
2021/05/28 05:13:47;;;;;;;12.97;7.07;;;;;;;9.42;100.00;101286.56;5013033;28;20228;-71
2021/05/28 05:16:12;;;;;;;12.40;7.10;;;;;;;9.42;100.00;101286.56;4996284;28;20204;-70
2021/05/28 05:18:38;;;;;;;13.90;6.83;;;;;;;9.43;100.00;101293.63;4998903;28;20184;-70
2021/05/28 05:21:03;;;;;;;12.47;7.03;;;;;;;9.39;100.00;101292.00;4999265;28;20199;-70
2021/05/28 05:23:29;;;;;;;12.70;6.87;;;;;;;9.45;100.00;101291.75;5017241;28;20525;-72
2021/05/28 05:25:54;;;;;;;12.20;6.27;;;;;;;9.51;100.00;101291.50;4999375;28;20169;-71
2021/05/28 05:28:19;;;;;;;12.90;6.53;;;;;;;9.50;100.00;101295.09;5016587;28;20173;-70
2021/05/28 05:30:45;;;;;;;8.37;5.70;;;;;;;9.49;100.00;101290.69;5016342;28;20613;-68
2021/05/28 05:33:11;;;;;;;8.77;4.93;;;;;;;9.54;100.00;101295.84;4998504;28;20189;-68
2021/05/28 05:35:36;;;;;;;7.90;4.47;;;;;;;9.50;100.00;101294.22;5016019;28;20681;-69
2021/05/28 05:38:02;;;;;;;11.63;4.50;;;;;;;9.46;100.00;101295.28;4998516;28;20220;-68
2021/05/28 05:40:27;;;;;;;8.07;4.50;;;;;;;9.59;100.00;101300.03;4998712;28;20207;-68
2021/05/28 05:42:52;;;;;;;7.37;3.80;;;;;;;9.66;100.00;101301.53;4998582;28;20203;-68
2021/05/28 05:45:18;;;;;;;7.97;4.00;;;;;;;9.65;100.00;101299.78;5015872;28;20573;-67
2021/05/28 05:47:43;;;;;;;4.80;3.70;;;;;;;9.66;100.00;101304.22;4999003;28;20187;-68
2021/05/28 05:50:10;;;;;;;7.07;3.63;;;;;;;9.70;100.00;101308.47;5017563;28;20173;-67
2021/05/28 05:52:36;;;;;;;5.43;3.67;;;;;;;9.73;100.00;101311.94;4999648;28;20276;-70
2021/05/28 05:55:01;;;;;;;6.70;3.57;;;;;;;9.73;100.00;101319.94;5017258;28;20196;-68
2021/05/28 05:57:26;;;;;;;8.90;4.17;;;;;;;9.91;100.00;101329.81;5015912;28;20173;-68
2021/05/28 05:59:52;;;;;;;10.20;3.70;;;;;;;9.91;100.00;101324.50;5016326;28;20256;-70
2021/05/28 06:02:17;;;;;;;4.13;3.13;;;;;;;9.98;100.00;101328.63;4981850;28;20584;-70
2021/05/28 06:04:43;;;;;;;5.23;3.60;;;;;;;9.97;100.00;101326.88;5015579;28;20227;-70
2021/05/28 06:07:08;;;;;;;9.37;4.03;;;;;;;10.02;100.00;101335.56;4997666;28;20213;-68
2021/05/28 06:09:33;;;;;;;4.67;2.90;;;;;;;9.96;100.00;101338.50;5015672;28;20181;-72
2021/05/28 06:11:59;;;;;;;4.10;2.90;;;;;;;9.80;100.00;101337.41;4981473;28;20196;-70
2021/05/28 06:14:25;;;;;;;4.63;2.67;;;;;;;9.75;100.00;101340.28;4997717;28;20196;-71
2021/05/28 06:16:51;;;;;;;5.63;3.47;;;;;;;9.84;100.00;101344.34;4997918;28;20657;-70
2021/05/28 06:19:16;;;;;;;4.20;3.33;;;;;;;9.84;100.00;101347.00;4997639;28;20200;-72
2021/05/28 06:21:42;;;;;;;4.30;2.67;;;;;;;9.93;100.00;101347.50;4997537;28;20197;-72
2021/05/28 06:24:07;;;;;;;4.37;3.40;;;;;;;10.08;100.00;101350.47;5015135;28;20168;-72
2021/05/28 06:26:33;;;;;;;6.20;2.80;;;;;;;10.23;100.00;101356.03;4998345;28;20169;-72
2021/05/28 06:28:58;;;;;;;4.87;2.90;;;;;;;10.16;100.00;101359.88;4996854;28;20664;-71
2021/05/28 06:31:23;;;;;;;3.90;3.20;;;;;;;10.20;100.00;101350.81;4997349;28;20292;-71
2021/05/28 06:33:49;;;;;;;7.53;3.60;;;;;;;10.45;100.00;101355.97;5015420;28;20200;-71
2021/05/28 06:36:14;;;;;;;6.60;3.57;;;;;;;10.47;100.00;101364.78;4981177;28;20235;-71
2021/05/28 06:38:39;;;;;;;6.57;4.13;;;;;;;10.63;100.00;101360.47;5015357;28;20177;-71
2021/05/28 06:41:05;;;;;;;5.70;3.40;;;;;;;10.69;100.00;101366.47;5015379;28;20208;-71
2021/05/28 06:43:31;;;;;;;6.53;4.03;;;;;;;10.70;100.00;101374.41;4997289;28;20588;-72
2021/05/28 06:45:56;;;;;;;8.37;4.00;;;;;;;10.55;100.00;101372.44;5014683;28;20165;-71
2021/05/28 06:48:21;;;;;;;5.90;3.97;;;;;;;10.37;100.00;101382.09;4980862;28;20180;-70
2021/05/28 06:50:46;;;;;;;7.77;4.17;;;;;;;10.37;100.00;101378.56;5014843;28;20565;-71
2021/05/28 06:53:12;;;;;;;11.67;4.80;;;;;;;10.40;100.00;101379.28;5014678;28;20181;-70
2021/05/28 06:55:38;;;;;;;7.73;4.30;;;;;;;10.64;100.00;101385.38;5014290;28;20295;-71
2021/05/28 06:58:04;;;;;;;6.27;4.47;;;;;;;10.67;100.00;101381.69;5014300;28;20621;-72
2021/05/28 07:00:29;;;;;;;9.50;4.57;;;;;;;10.80;100.00;101394.44;4980607;28;20179;-72
2021/05/28 07:02:57;;;;;;;12.83;4.00;;;;;;;10.89;99.80;101394.03;5014387;28;20201;-71
2021/05/28 07:05:24;;;;;;;4.90;3.60;;;;;;;10.87;98.54;101385.22;4980779;28;20173;-72
2021/05/28 07:07:53;;;;;;;7.10;3.90;;;;;;;10.85;100.00;101386.22;4980610;28;20169;-71
2021/05/28 07:10:18;;;;;;;8.57;4.40;;;;;;;10.76;100.00;101390.16;4980736;28;20530;-71
2021/05/28 07:12:44;;;;;;;5.63;4.03;;;;;;;11.08;100.00;101393.16;4997398;28;20212;-72
2021/05/28 07:15:10;;;;;;;4.53;3.97;;;;;;;11.12;100.00;101398.28;4997349;28;20278;-72
2021/05/28 07:17:36;;;;;;;6.20;3.80;;;;;;;11.03;100.00;101396.06;4997111;28;20183;-73
2021/05/28 07:20:03;;;;;;;5.07;3.50;;;;;;;11.05;100.00;101402.19;4997197;28;20181;-72
2021/05/28 07:22:28;;;;;;;6.67;3.60;;;;;;;11.21;100.00;101397.03;4980823;28;20200;-73
2021/05/28 07:24:53;;;;;;;5.33;3.47;;;;;;;11.24;100.00;101403.09;5014714;28;20591;-73
2021/05/28 07:27:19;;;;;;;4.77;3.13;;;;;;;11.11;99.55;101403.72;4997306;28;20227;-73
2021/05/28 07:29:44;;;;;;;6.80;3.47;;;;;;;11.19;98.21;101406.91;4997849;28;20204;-74
2021/05/28 07:32:09;;;;;;;7.50;3.13;;;;;;;11.19;100.00;101407.78;5043683;22;20557;-66
2021/05/28 07:34:36;;;;;;;4.20;3.17;;;;;;;11.11;100.00;101409.06;5015754;28;20184;-66
2021/05/28 07:37:02;;;;;;;4.70;2.90;;;;;;;11.00;98.61;101406.88;5034215;28;20203;-67
2021/05/28 07:39:27;;;;;;;3.73;3.10;;;;;;;11.15;95.91;101413.31;5033239;28;20667;-67
2021/05/28 07:41:52;;;;;;;5.63;3.20;;;;;;;11.32;97.94;101416.09;5015713;28;20196;-67
2021/05/28 07:44:17;;;;;;;3.80;3.40;;;;;;;10.98;96.95;101408.75;5033498;28;20180;-65
2021/05/28 07:46:44;;;;;;;5.20;3.27;;;;;;;11.14;99.89;101415.13;5032967;28;20183;-66
2021/05/28 07:49:13;;;;;;;5.43;3.20;;;;;;;10.83;98.03;101415.66;5033101;28;20176;-67
2021/05/28 07:51:38;;;;;;;6.03;3.00;;;;;;;10.89;99.26;101418.06;5033292;28;20196;-67
2021/05/28 07:54:05;;;;;;;6.50;2.90;;;;;;;10.60;98.40;101415.81;5015370;28;20176;-66
2021/05/28 07:56:31;;;;;;;3.20;2.90;;;;;;;10.54;99.38;101418.75;5033030;28;20253;-67
2021/05/28 07:58:56;;;;;;;5.33;3.10;;;;;;;10.55;99.40;101417.81;5033126;28;20176;-67
2021/05/28 08:01:22;;;;;;;5.70;2.80;;;;;;;10.51;97.63;101413.53;5016043;28;20182;-67
2021/05/28 08:03:47;;;;;;;4.10;2.90;;;;;;;10.38;99.10;101413.19;5033641;28;20185;-67
2021/05/28 08:06:12;;;;;;;5.37;2.97;;;;;;;10.75;100.00;101416.91;5033104;28;20172;-68
2021/05/28 08:08:38;;;;;;;4.40;2.97;;;;;;;10.89;97.41;101422.53;4999146;28;20191;-68
2021/05/28 08:11:03;;;;;;;3.77;2.80;;;;;;;10.64;94.42;101420.06;5033624;28;20182;-67
2021/05/28 08:13:28;;;;;;;6.90;2.70;;;;;;;10.49;92.33;101423.41;5033362;28;20587;-67
2021/05/28 08:15:54;;;;;;;4.80;2.77;;;;;;;10.29;92.91;101422.47;5015499;28;20235;-67
2021/05/28 08:18:19;;;;;;;4.23;2.83;;;;;;;10.37;93.12;101426.59;5032984;28;20173;-68
2021/05/28 08:20:45;;;;;;;3.47;3.07;;;;;;;10.48;94.87;101425.22;5033338;28;20188;-67
2021/05/28 08:23:10;;;;;;;5.43;3.17;;;;;;;10.72;92.82;101423.25;5015769;28;20207;-68
2021/05/28 08:25:35;;;;;;;6.87;3.00;;;;;;;10.81;91.66;101432.69;5015445;28;20667;-67
2021/05/28 08:28:01;;;;;;;4.63;3.00;;;;;;;10.67;93.27;101430.63;5015590;28;20180;-68
2021/05/28 08:30:26;;;;;;;3.60;2.20;;;;;;;10.65;85.59;101427.16;5032928;28;20181;-66
2021/05/28 08:32:51;;;;;;;4.23;3.37;;;;;;;10.85;84.53;101428.94;5032690;28;20223;-67
2021/05/28 08:35:17;;;;;;;2.90;2.57;;;;;;;11.14;83.44;101430.28;5032625;28;20200;-69
2021/05/28 08:37:42;;;;;;;3.03;2.20;;;;;;;11.84;73.49;101416.28;5033616;28;20187;-68
2021/05/28 08:40:09;;;;;;;3.27;1.87;;;;;;;12.31;67.98;101421.13;5014933;28;20176;-68
2021/05/28 08:42:35;;;;;;;3.23;1.80;;;;;;;12.86;64.81;101424.47;4999079;28;20695;-69
2021/05/28 08:45:00;;;;;;;4.37;2.10;;;;;;;13.08;67.07;101422.38;4999775;28;20181;-69
2021/05/28 08:47:27;;;;;;;3.13;2.10;;;;;;;13.09;70.02;101421.44;5033239;28;20180;-68
2021/05/28 08:49:53;;;;;;;2.90;2.10;;;;;;;13.02;69.90;101424.53;5032835;28;20656;-68
2021/05/28 08:52:20;;;;;;;3.57;2.87;;;;;;;12.87;68.61;101419.97;5017662;28;20227;-68
2021/05/28 08:54:45;;;;;;;2.17;1.97;;;;;;;13.20;72.01;101430.72;5018877;28;20303;-68
2021/05/28 08:57:11;;;;;;;3.07;2.27;;;;;;;13.49;72.71;101440.72;5019391;28;20199;-70
2021/05/28 08:59:36;;;;;;;3.20;1.83;;;;;;;13.40;68.81;101431.38;5019162;28;20298;-69
2021/05/28 09:02:01;;;;;;;4.57;2.20;;;;;;;13.78;70.48;101431.06;5036568;28;20207;-69
2021/05/28 09:04:27;;;;;;;2.33;1.80;;;;;;;13.91;67.57;101426.72;5019086;28;20648;-68
2021/05/28 09:06:52;;;;;;;2.27;2.07;;;;;;;13.84;61.88;101419.97;5036296;28;20644;-69
2021/05/28 09:09:20;;;;;;;6.30;1.70;;;;;;;13.75;62.40;101425.84;5036737;28;20176;-69
2021/05/28 09:12:01;;;;;;;2.30;1.80;;;;;;;13.72;62.29;101423.31;5018617;28;20211;-69
2021/05/28 09:14:37;;;;;;;3.10;1.60;;;;;;;13.80;60.14;101431.81;5036561;28;20218;-68
2021/05/28 09:17:04;;;;;;;3.10;1.70;;;;;;;13.94;61.59;101425.66;5018739;28;20556;-69
2021/05/28 09:19:30;;;;;;;4.13;1.80;;;;;;;14.33;60.96;101431.38;5018634;28;20257;-69
2021/05/28 09:22:10;;;;;;;4.10;1.80;;;;;;;14.18;56.45;101420.69;5018629;28;20636;-69
2021/05/28 09:24:44;;;;;;;3.23;1.83;;;;;;;14.34;58.19;101430.44;5018821;28;20172;-68
2021/05/28 09:27:31;;;;;;;2.10;1.90;;;;;;;13.89;59.78;101425.94;5018314;28;20179;-68
2021/05/28 09:30:17;;;;;;;2.40;1.60;;;;;;;13.50;59.27;101436.22;5035995;28;20255;-68
2021/05/28 09:32:45;;;;;;;3.87;1.93;;;;;;;13.33;59.15;101434.44;5018289;28;20274;-68
2021/05/28 09:35:16;;;;;;;2.43;1.73;;;;;;;13.82;59.33;101437.97;5018026;28;20211;-68
2021/05/28 09:37:46;;;;;;;2.27;1.80;;;;;;;13.92;58.87;101444.53;5018484;28;20532;-69
2021/05/28 09:40:19;;;;;;;2.13;1.60;;;;;;;14.24;59.57;101444.50;5018109;28;20165;-68
2021/05/28 09:42:57;;;;;;;4.03;2.13;;;;;;;14.69;59.32;101444.47;5018487;28;20187;-69
2021/05/28 09:45:32;;;;;;;2.10;1.60;;;;;;;14.33;58.21;101434.06;5018429;28;20251;-69
2021/05/28 09:48:19;;;;;;;2.07;1.87;;;;;;;14.19;59.98;101447.47;5018357;28;20164;-69
2021/05/28 09:50:46;;;;;;;4.17;2.00;;;;;;;13.87;58.51;101443.94;5035954;28;20168;-69
2021/05/28 09:53:30;;;;;;;2.43;1.50;;;;;;;14.34;53.65;101448.38;5035492;28;20192;-67
2021/05/28 09:55:56;;;;;;;1.33;1.17;;;;;;;14.79;49.67;101451.97;5017385;28;20200;-69
2021/05/28 09:58:22;;;;;;;1.30;1.20;;;;;;;15.59;47.90;101454.16;5035529;28;20263;-69
2021/05/28 10:00:47;;;;;;;1.87;1.30;;;;;;;16.01;46.93;101444.28;5036294;28;20229;-69
2021/05/28 10:03:23;;;;;;;5.30;1.50;;;;;;;15.32;49.38;101454.91;5035628;28;20196;-69
2021/05/28 10:05:58;;;;;;;1.97;1.63;;;;;;;15.47;50.32;101457.59;5035274;28;20260;-68
2021/05/28 10:08:25;;;;;;;1.93;1.30;;;;;;;15.47;52.37;101454.91;5035462;28;20165;-69
2021/05/28 10:10:52;;;;;;;3.03;1.50;;;;;;;15.69;51.56;101449.06;5035109;28;20259;-68
2021/05/28 10:13:20;;;;;;;2.23;1.60;;;;;;;14.80;53.68;101453.69;5017180;28;20200;-69
2021/05/28 10:15:48;;;;;;;4.07;1.97;;;;;;;15.36;53.06;101457.41;5019375;28;20235;-69
2021/05/28 10:18:14;;;;;;;2.30;1.57;;;;;;;15.57;51.73;101445.28;5045115;28;20176;-69
2021/05/28 10:20:42;;;;;;;3.23;2.33;;;;;;;15.85;53.38;101447.94;5017259;28;20534;-69
2021/05/28 10:23:09;;;;;;;2.80;1.63;;;;;;;15.49;52.96;101444.91;5022236;28;20203;-68
2021/05/28 10:25:36;;;;;;;2.53;1.90;;;;;;;15.22;53.09;101453.75;5017910;28;20179;-68
2021/05/28 10:28:05;;;;;;;3.27;1.60;;;;;;;15.19;55.15;101456.63;5034971;28;20636;-68
2021/05/28 10:30:39;;;;;;;2.43;1.53;;;;;;;15.00;55.99;101454.22;5017536;28;20181;-68
2021/05/28 10:33:23;;;;;;;1.97;1.40;;;;;;;14.62;54.25;101445.81;5034711;28;20290;-69
2021/05/28 10:35:50;;;;;;;1.47;1.30;;;;;;;13.66;55.93;101454.03;5034963;28;20671;-69
2021/05/28 10:38:34;;;;;;;3.40;1.30;;;;;;;12.75;59.87;101456.31;5017115;28;20184;-69
2021/05/28 10:40:59;;;;;;;3.30;1.13;;;;;;;12.01;64.00;101456.47;5017012;28;20547;-69
2021/05/28 10:43:26;;;;;;;2.90;1.47;;;;;;;11.35;68.76;101465.84;5034505;28;20192;-69
2021/05/28 10:45:53;;;;;;;4.70;1.87;;;;;;;10.34;80.39;101479.16;5034450;28;20175;-69
2021/05/28 10:48:40;;;;;;;4.50;1.73;;;;;;;9.91;82.18;101471.13;5034299;28;20183;-69
2021/05/28 10:51:32;;;;;;;4.87;2.30;;;;;;;9.59;86.87;101475.06;5034229;28;20183;-69
2021/05/28 10:53:57;;;;;;;2.27;1.77;;;;;;;9.49;89.32;101471.91;5006119;28;20621;-68
2021/05/28 10:56:25;;;;;;;5.30;2.37;;;;;;;9.30;93.74;101476.19;5017180;28;20211;-68
2021/05/28 10:58:54;;;;;;;2.70;2.03;;;;;;;9.34;94.81;101477.81;5034149;28;20222;-68
2021/05/28 11:01:34;;;;;;;2.43;2.17;;;;;;;9.32;94.63;101479.66;5033905;28;20169;-68
2021/05/28 11:04:09;;;;;;;2.83;2.30;;;;;;;9.16;96.82;101490.00;5016281;28;20548;-68
2021/05/28 11:07:04;;;;;;;3.90;2.53;;;;;;;9.23;99.21;101504.81;5016610;28;20212;-67
2021/05/28 11:09:48;;;;;;;3.53;2.13;;;;;;;9.29;99.49;101495.75;5016073;28;20176;-67
2021/05/28 11:12:26;;;;;;;6.63;2.50;;;;;;;9.32;95.90;101493.00;5034076;28;20265;-67
2021/05/28 11:15:15;;;;;;;4.60;2.17;;;;;;;9.33;94.21;101502.72;5033323;28;20199;-68
2021/05/28 11:17:55;;;;;;;2.63;1.97;;;;;;;9.35;95.36;101498.19;5017215;28;20172;-67
2021/05/28 11:20:28;;;;;;;3.23;2.50;;;;;;;9.42;98.08;101493.50;5016284;28;20160;-67